createdAt,value
2023-01-29T00:01:38.293Z,100.00
2023-01-29T00:04:05.299Z,100.00
2023-01-29T00:06:32.400Z,100.00
2023-01-29T00:08:59.226Z,100.00
2023-01-29T00:11:26.049Z,100.00
2023-01-29T00:13:53.334Z,100.00
2023-01-29T00:16:21.300Z,100.00
2023-01-29T00:18:47.957Z,100.00
2023-01-29T00:21:19.793Z,100.00
2023-01-29T00:23:46.690Z,100.00
2023-01-29T00:26:13.995Z,100.00
2023-01-29T00:28:41.199Z,100.00
2023-01-29T00:31:21.408Z,100.00
2023-01-29T00:33:49.516Z,100.00
2023-01-29T00:36:18.306Z,100.00
2023-01-29T00:38:45.071Z,100.00
2023-01-29T00:41:34.854Z,100.00
2023-01-29T00:44:20.853Z,100.00
2023-01-29T00:46:47.525Z,100.00
2023-01-29T00:49:14.186Z,100.00
2023-01-29T00:51:41.191Z,100.00
2023-01-29T00:54:07.885Z,100.00
2023-01-29T00:56:36.786Z,100.00
2023-01-29T00:59:04.938Z,100.00
2023-01-29T01:01:50.209Z,100.00
2023-01-29T01:04:16.922Z,100.00
2023-01-29T01:06:43.870Z,100.00
2023-01-29T01:09:30.058Z,100.00
2023-01-29T01:11:56.742Z,100.00
2023-01-29T01:14:23.391Z,100.00
2023-01-29T01:16:50.238Z,100.00
2023-01-29T01:19:17.357Z,100.00
2023-01-29T01:21:47.157Z,100.00
2023-01-29T01:24:14.488Z,100.00
2023-01-29T01:26:41.209Z,100.00
2023-01-29T01:29:07.917Z,100.00
2023-01-29T01:31:34.656Z,100.00
2023-01-29T01:34:01.447Z,100.00
2023-01-29T01:36:28.139Z,100.00
2023-01-29T01:38:55.060Z,100.00
2023-01-29T01:41:24.096Z,100.00
2023-01-29T01:43:55.869Z,100.00
2023-01-29T01:46:23.433Z,100.00
2023-01-29T01:48:57.058Z,100.00
2023-01-29T01:51:26.388Z,100.00
2023-01-29T01:54:03.775Z,100.00
2023-01-29T01:56:40.922Z,100.00
2023-01-29T01:59:11.815Z,100.00
2023-01-29T02:01:42.954Z,100.00
2023-01-29T02:04:32.671Z,100.00
2023-01-29T02:07:20.845Z,100.00
2023-01-29T02:10:15.570Z,100.00
2023-01-29T02:12:44.228Z,100.00
2023-01-29T02:15:21.052Z,100.00
2023-01-29T02:17:48.446Z,100.00
2023-01-29T02:20:26.503Z,100.00
2023-01-29T02:23:16.425Z,100.00
2023-01-29T02:25:43.007Z,100.00
2023-01-29T02:28:18.773Z,100.00
2023-01-29T02:30:59.641Z,100.00
2023-01-29T02:33:26.333Z,100.00
2023-01-29T02:36:31.638Z,100.00
2023-01-29T02:39:31.341Z,100.00
2023-01-29T02:42:16.795Z,100.00
2023-01-29T02:45:01.178Z,100.00
2023-01-29T02:47:40.133Z,100.00
2023-01-29T02:50:46.430Z,100.00
2023-01-29T02:53:19.369Z,100.00
2023-01-29T02:55:54.970Z,100.00
2023-01-29T02:58:33.252Z,100.00
2023-01-29T03:01:23.664Z,100.00
2023-01-29T03:03:55.757Z,100.00
2023-01-29T03:06:32.744Z,100.00
2023-01-29T03:09:04.415Z,100.00
2023-01-29T03:11:45.337Z,100.00
2023-01-29T03:14:17.134Z,100.00
2023-01-29T03:16:51.157Z,100.00
2023-01-29T03:19:31.918Z,100.00
2023-01-29T03:22:00.815Z,100.00
2023-01-29T03:25:02.406Z,100.00
2023-01-29T03:27:55.322Z,100.00
2023-01-29T03:30:44.286Z,100.00
2023-01-29T03:33:14.022Z,100.00
2023-01-29T03:35:50.142Z,100.00
2023-01-29T03:38:18.451Z,100.00
2023-01-29T03:40:58.350Z,100.00
2023-01-29T03:43:40.459Z,100.00
2023-01-29T03:46:29.880Z,100.00
2023-01-29T03:49:30.314Z,100.00
2023-01-29T03:52:09.748Z,100.00
2023-01-29T03:55:06.756Z,100.00
2023-01-29T03:58:00.979Z,100.00
2023-01-29T04:00:36.175Z,100.00
2023-01-29T04:03:21.794Z,100.00
2023-01-29T04:06:12.528Z,100.00
2023-01-29T04:08:58.902Z,100.00
2023-01-29T04:11:29.096Z,100.00
2023-01-29T04:13:57.480Z,100.00
2023-01-29T04:16:29.091Z,100.00
2023-01-29T04:18:56.832Z,100.00
2023-01-29T04:21:25.122Z,100.00
2023-01-29T04:23:51.913Z,100.00
2023-01-29T04:26:29.400Z,100.00
2023-01-29T04:29:33.402Z,100.00
2023-01-29T04:32:18.971Z,100.00
2023-01-29T04:35:17.679Z,100.00
2023-01-29T04:38:01.571Z,100.00
2023-01-29T04:41:19.390Z,100.00
2023-01-29T04:44:06.414Z,100.00
2023-01-29T04:46:54.851Z,100.00
2023-01-29T04:49:30.537Z,100.00
2023-01-29T04:52:09.042Z,100.00
2023-01-29T04:54:48.580Z,100.00
2023-01-29T04:57:25.485Z,100.00
2023-01-29T05:00:23.230Z,100.00
2023-01-29T05:02:51.103Z,100.00
2023-01-29T05:05:20.305Z,100.00
2023-01-29T05:07:48.304Z,100.00
2023-01-29T05:10:20.143Z,100.00
2023-01-29T05:12:52.999Z,100.00
2023-01-29T05:15:26.615Z,100.00
2023-01-29T05:17:54.657Z,100.00
2023-01-29T05:20:21.646Z,100.00
2023-01-29T05:22:49.337Z,100.00
2023-01-29T05:25:26.123Z,100.00
2023-01-29T05:28:16.395Z,100.00
2023-01-29T05:30:49.429Z,100.00
2023-01-29T05:33:27.934Z,100.00
2023-01-29T05:35:55.979Z,100.00
2023-01-29T05:38:23.846Z,100.00
2023-01-29T05:40:50.953Z,100.00
2023-01-29T05:43:25.459Z,100.00
2023-01-29T05:45:59.973Z,100.00
2023-01-29T05:48:28.980Z,100.00
2023-01-29T05:51:04.701Z,100.00
2023-01-29T05:53:32.563Z,100.00
2023-01-29T05:56:02.434Z,100.00
2023-01-29T05:58:31.925Z,100.00
2023-01-29T06:00:58.814Z,100.00
2023-01-29T06:03:25.496Z,100.00
2023-01-29T06:05:52.257Z,100.00
2023-01-29T06:08:18.951Z,100.00
2023-01-29T06:10:45.673Z,100.00
2023-01-29T06:13:12.386Z,100.00
2023-01-29T06:15:40.615Z,100.00
2023-01-29T06:18:07.334Z,100.00
2023-01-29T06:20:34.039Z,100.00
2023-01-29T06:23:00.904Z,100.00
2023-01-29T06:25:27.615Z,100.00
2023-01-29T06:27:54.287Z,100.00
2023-01-29T06:30:21.123Z,100.00
2023-01-29T06:32:48.004Z,100.00
2023-01-29T06:35:14.704Z,100.00
2023-01-29T06:37:41.430Z,100.00
2023-01-29T06:40:08.943Z,100.00
2023-01-29T06:42:35.894Z,100.00
2023-01-29T06:45:02.594Z,100.00
2023-01-29T06:47:30.290Z,100.00
2023-01-29T06:49:56.964Z,100.00
2023-01-29T06:52:25.532Z,100.00
2023-01-29T06:54:52.218Z,100.00
2023-01-29T06:57:18.975Z,100.00
2023-01-29T06:59:45.644Z,100.00
2023-01-29T07:02:16.029Z,100.00
2023-01-29T07:04:42.972Z,100.00
2023-01-29T07:07:15.804Z,100.00
2023-01-29T07:09:43.117Z,100.00
2023-01-29T07:12:10.610Z,100.00
2023-01-29T07:14:37.531Z,100.00
2023-01-29T07:17:04.510Z,100.00
2023-01-29T07:19:31.405Z,100.00
2023-01-29T07:21:58.325Z,100.00
2023-01-29T07:24:25.093Z,100.00
2023-01-29T07:26:51.868Z,100.00
2023-01-29T07:29:20.865Z,100.00
2023-01-29T07:31:47.900Z,100.00
2023-01-29T07:34:14.844Z,100.00
2023-01-29T07:36:41.727Z,100.00
2023-01-29T07:39:08.444Z,100.00
2023-01-29T07:41:35.300Z,100.00
2023-01-29T07:44:02.042Z,100.00
2023-01-29T07:46:28.741Z,100.00
2023-01-29T07:48:55.520Z,100.00
2023-01-29T07:51:22.255Z,100.00
2023-01-29T07:53:50.096Z,100.00
2023-01-29T07:56:16.800Z,100.00
2023-01-29T07:58:43.566Z,100.00
2023-01-29T08:01:10.359Z,100.00
2023-01-29T08:03:37.695Z,100.00
2023-01-29T08:06:04.866Z,100.00
2023-01-29T08:08:31.628Z,100.00
2023-01-29T08:11:01.364Z,100.00
2023-01-29T08:13:28.408Z,100.00
2023-01-29T08:16:00.122Z,100.00
2023-01-29T08:18:27.024Z,100.00
2023-01-29T08:20:54.508Z,100.00
2023-01-29T08:23:21.306Z,100.00
2023-01-29T08:25:48.247Z,100.00
2023-01-29T08:28:16.436Z,100.00
2023-01-29T08:30:44.786Z,100.00
2023-01-29T08:33:13.716Z,100.00
2023-01-29T08:35:41.328Z,100.00
2023-01-29T08:38:09.737Z,100.00
2023-01-29T08:40:36.611Z,100.00
2023-01-29T08:43:07.999Z,100.00
2023-01-29T08:45:38.353Z,100.00
2023-01-29T08:48:05.780Z,96.78
2023-01-29T08:50:35.076Z,96.91
2023-01-29T08:53:04.699Z,86.63
2023-01-29T08:55:31.802Z,93.84
2023-01-29T08:57:58.610Z,74.99
2023-01-29T09:00:25.503Z,78.72
2023-01-29T09:02:52.730Z,78.03
2023-01-29T09:05:19.819Z,100.00
2023-01-29T09:07:46.862Z,99.28
2023-01-29T09:10:15.512Z,90.71
2023-01-29T09:12:42.986Z,80.85
2023-01-29T09:15:10.271Z,75.09
2023-01-29T09:17:38.603Z,69.89
2023-01-29T09:20:07.867Z,69.55
2023-01-29T09:22:37.143Z,61.92
2023-01-29T09:25:04.463Z,61.19
2023-01-29T09:27:31.249Z,62.32
2023-01-29T09:29:58.119Z,52.18
2023-01-29T09:32:52.110Z,51.40
2023-01-29T09:35:11.697Z,53.75
2023-01-29T09:37:38.488Z,54.88
2023-01-29T09:40:05.963Z,60.97
2023-01-29T09:42:50.365Z,71.55
2023-01-29T09:45:25.486Z,79.78
2023-01-29T09:47:53.716Z,69.81
2023-01-29T09:50:28.351Z,74.46
2023-01-29T09:53:19.880Z,70.52
2023-01-29T09:55:55.725Z,73.59
2023-01-29T09:58:29.267Z,71.63
2023-01-29T10:01:26.460Z,71.56
2023-01-29T10:04:14.963Z,65.49
2023-01-29T10:07:01.735Z,71.28
2023-01-29T10:09:43.814Z,83.71
2023-01-29T10:12:44.053Z,85.63
2023-01-29T10:15:39.005Z,72.14
2023-01-29T10:18:43.152Z,62.17
2023-01-29T10:21:24.350Z,56.77
2023-01-29T10:24:12.397Z,52.49
2023-01-29T10:26:40.743Z,50.78
2023-01-29T10:29:08.724Z,53.73
2023-01-29T10:31:40.597Z,53.60
2023-01-29T10:34:25.100Z,56.61
2023-01-29T10:36:51.852Z,56.73
2023-01-29T10:39:20.990Z,60.07
2023-01-29T10:41:54.098Z,66.66
2023-01-29T10:44:49.683Z,65.83
2023-01-29T10:48:06.484Z,63.05
2023-01-29T10:50:42.268Z,67.49
2023-01-29T10:53:24.422Z,72.78
2023-01-29T10:55:53.689Z,71.21
2023-01-29T10:58:30.440Z,75.21
2023-01-29T11:00:57.989Z,71.10
2023-01-29T11:03:33.606Z,71.53
2023-01-29T11:06:13.038Z,81.38
2023-01-29T11:08:48.862Z,78.61
2023-01-29T11:11:18.170Z,81.71
2023-01-29T11:13:55.411Z,92.88
2023-01-29T11:16:22.191Z,100.00
2023-01-29T11:18:55.170Z,95.40
2023-01-29T11:21:24.579Z,100.00
2023-01-29T11:24:06.429Z,100.00
2023-01-29T11:26:38.259Z,100.00
2023-01-29T11:29:05.122Z,100.00
2023-01-29T11:31:39.864Z,100.00
2023-01-29T11:34:19.521Z,100.00
2023-01-29T11:36:47.041Z,100.00
2023-01-29T11:39:21.496Z,100.00
2023-01-29T11:41:49.874Z,100.00
2023-01-29T11:44:53.779Z,100.00
2023-01-29T11:47:27.941Z,100.00
2023-01-29T11:50:01.220Z,100.00
2023-01-29T11:52:36.534Z,100.00
2023-01-29T11:55:29.697Z,100.00
2023-01-29T11:58:15.166Z,100.00
2023-01-29T12:00:46.730Z,100.00
2023-01-29T12:03:38.163Z,100.00
2023-01-29T12:06:12.814Z,100.00
2023-01-29T12:08:40.276Z,100.00
2023-01-29T12:11:10.450Z,100.00
2023-01-29T12:13:37.358Z,100.00
2023-01-29T12:16:29.298Z,100.00
2023-01-29T12:19:22.381Z,100.00
2023-01-29T12:21:52.651Z,100.00
2023-01-29T12:24:32.266Z,100.00
2023-01-29T12:27:20.834Z,100.00
2023-01-29T12:29:55.944Z,100.00
2023-01-29T12:32:28.972Z,100.00
2023-01-29T12:35:10.662Z,100.00
2023-01-29T12:38:01.056Z,100.00
2023-01-29T12:40:33.808Z,100.00
2023-01-29T12:43:07.308Z,100.00
2023-01-29T12:45:37.034Z,100.00
2023-01-29T12:48:10.700Z,100.00
2023-01-29T12:50:38.776Z,100.00
2023-01-29T12:53:14.524Z,100.00
2023-01-29T12:55:48.821Z,100.00
2023-01-29T12:58:25.474Z,100.00
2023-01-29T13:00:55.327Z,100.00
2023-01-29T13:03:31.609Z,100.00
2023-01-29T13:06:12.121Z,100.00
2023-01-29T13:08:45.755Z,100.00
2023-01-29T13:11:39.774Z,100.00
2023-01-29T13:14:44.811Z,100.00
2023-01-29T13:17:38.198Z,100.00
2023-01-29T13:20:32.765Z,100.00
2023-01-29T13:23:12.995Z,100.00
2023-01-29T13:25:39.881Z,100.00
2023-01-29T13:28:21.137Z,100.00
2023-01-29T13:31:07.852Z,100.00
2023-01-29T13:33:34.736Z,100.00
2023-01-29T13:36:01.513Z,100.00
2023-01-29T13:38:33.332Z,100.00
2023-01-29T13:41:06.669Z,100.00
2023-01-29T13:43:40.808Z,100.00
2023-01-29T13:46:10.765Z,100.00
2023-01-29T13:48:42.982Z,100.00
2023-01-29T13:51:22.100Z,100.00
2023-01-29T13:53:54.157Z,100.00
2023-01-29T13:56:33.188Z,100.00
2023-01-29T13:59:05.649Z,100.00
2023-01-29T14:01:47.733Z,100.00
2023-01-29T14:04:25.577Z,100.00
2023-01-29T14:07:07.034Z,100.00
2023-01-29T14:09:33.817Z,100.00
2023-01-29T14:12:00.668Z,100.00
2023-01-29T14:14:59.699Z,100.00
2023-01-29T14:17:27.457Z,100.00
2023-01-29T14:20:03.325Z,100.00
2023-01-29T14:22:33.810Z,100.00
2023-01-29T14:25:05.072Z,100.00
2023-01-29T14:27:32.996Z,100.00
2023-01-29T14:30:02.695Z,100.00
2023-01-29T14:32:29.958Z,100.00
2023-01-29T14:35:25.175Z,100.00
2023-01-29T14:37:56.390Z,100.00
2023-01-29T14:40:26.101Z,100.00
2023-01-29T14:42:58.691Z,100.00
2023-01-29T14:45:42.641Z,100.00
2023-01-29T14:48:12.498Z,100.00
2023-01-29T14:50:42.969Z,100.00
2023-01-29T14:53:37.719Z,100.00
2023-01-29T14:56:10.870Z,100.00
2023-01-29T14:58:39.624Z,100.00
2023-01-29T15:01:25.355Z,100.00
2023-01-29T15:04:12.160Z,100.00
2023-01-29T15:07:10.490Z,100.00
2023-01-29T15:10:21.546Z,100.00
2023-01-29T15:13:01.106Z,100.00
2023-01-29T15:15:50.950Z,100.00
2023-01-29T15:18:28.829Z,100.00
2023-01-29T15:21:04.925Z,100.00
2023-01-29T15:23:34.552Z,100.00
2023-01-29T15:26:11.696Z,100.00
2023-01-29T15:28:40.078Z,100.00
2023-01-29T15:31:15.245Z,100.00
2023-01-29T15:33:45.661Z,100.00
2023-01-29T15:36:25.471Z,100.00
2023-01-29T15:39:22.623Z,100.00
2023-01-29T15:41:52.025Z,100.00
2023-01-29T15:44:23.106Z,100.00
2023-01-29T15:46:54.829Z,100.00
2023-01-29T15:49:34.058Z,100.00
2023-01-29T15:52:08.022Z,100.00
2023-01-29T15:54:35.942Z,100.00
2023-01-29T15:57:03.629Z,100.00
2023-01-29T15:59:34.772Z,100.00
2023-01-29T16:02:35.689Z,100.00
2023-01-29T16:05:04.062Z,100.00
2023-01-29T16:07:32.125Z,100.00
2023-01-29T16:10:00.404Z,100.00
2023-01-29T16:12:28.107Z,100.00
2023-01-29T16:14:56.022Z,100.00
2023-01-29T16:17:35.756Z,100.00
2023-01-29T16:20:06.123Z,100.00
2023-01-29T16:22:37.936Z,100.00
2023-01-29T16:25:05.538Z,100.00
2023-01-29T16:27:33.626Z,100.00
2023-01-29T16:30:02.309Z,100.00
2023-01-29T16:32:30.711Z,100.00
2023-01-29T16:35:00.348Z,100.00
2023-01-29T16:37:33.575Z,100.00
2023-01-29T16:40:00.527Z,100.00
2023-01-29T16:42:31.561Z,100.00
2023-01-29T16:45:02.598Z,100.00
2023-01-29T16:47:34.063Z,100.00
2023-01-29T16:50:22.534Z,100.00
2023-01-29T16:53:22.192Z,100.00
2023-01-29T16:55:51.429Z,100.00
2023-01-29T16:58:30.815Z,100.00
2023-01-29T17:01:10.810Z,100.00
2023-01-29T17:03:39.450Z,100.00
2023-01-29T17:06:11.710Z,100.00
2023-01-29T17:08:41.271Z,100.00
2023-01-29T17:11:09.626Z,100.00
2023-01-29T17:13:45.468Z,100.00
2023-01-29T17:16:32.587Z,100.00
2023-01-29T17:19:00.586Z,100.00
2023-01-29T17:21:29.053Z,100.00
2023-01-29T17:23:55.824Z,100.00
2023-01-29T17:26:25.005Z,100.00
2023-01-29T17:28:53.826Z,100.00
2023-01-29T17:31:20.643Z,100.00
2023-01-29T17:33:47.867Z,100.00
2023-01-29T17:36:16.816Z,100.00
2023-01-29T17:38:45.017Z,100.00
2023-01-29T17:41:32.934Z,100.00
2023-01-29T17:43:59.629Z,100.00
2023-01-29T17:46:27.591Z,100.00
2023-01-29T17:48:54.265Z,100.00
2023-01-29T17:51:21.887Z,100.00
2023-01-29T17:53:50.058Z,100.00
2023-01-29T17:56:30.724Z,100.00
2023-01-29T17:58:57.405Z,100.00
2023-01-29T18:01:24.181Z,100.00
2023-01-29T18:03:50.997Z,100.00
2023-01-29T18:06:27.921Z,100.00
2023-01-29T18:08:54.675Z,100.00
2023-01-29T18:11:21.430Z,100.00
2023-01-29T18:13:48.395Z,100.00
2023-01-29T18:16:15.633Z,100.00
2023-01-29T18:18:42.340Z,100.00
2023-01-29T18:21:09.029Z,100.00
2023-01-29T18:23:36.257Z,100.00
2023-01-29T18:26:02.992Z,100.00
2023-01-29T18:28:29.889Z,100.00
2023-01-29T18:30:56.952Z,100.00
2023-01-29T18:33:24.322Z,100.00
2023-01-29T18:35:55.051Z,100.00
2023-01-29T18:38:22.166Z,100.00
2023-01-29T18:40:48.992Z,100.00
2023-01-29T18:43:21.412Z,100.00
2023-01-29T18:45:48.894Z,100.00
2023-01-29T18:48:15.523Z,100.00
2023-01-29T18:50:42.261Z,100.00
2023-01-29T18:53:09.028Z,100.00
2023-01-29T18:55:36.032Z,100.00
2023-01-29T18:58:28.772Z,100.00
2023-01-29T19:00:49.528Z,100.00
2023-01-29T19:03:16.373Z,100.00
2023-01-29T19:05:43.327Z,100.00
2023-01-29T19:08:10.273Z,100.00
2023-01-29T19:10:37.069Z,100.00
2023-01-29T19:13:05.802Z,100.00
2023-01-29T19:15:33.744Z,100.00
2023-01-29T19:18:00.876Z,100.00
2023-01-29T19:20:28.019Z,100.00
2023-01-29T19:22:54.709Z,100.00
2023-01-29T19:25:26.679Z,100.00
2023-01-29T19:27:53.378Z,100.00
2023-01-29T19:30:20.165Z,100.00
2023-01-29T19:32:46.983Z,100.00
2023-01-29T19:35:13.835Z,100.00
2023-01-29T19:37:40.474Z,100.00
2023-01-29T19:40:08.529Z,100.00
2023-01-29T19:42:37.495Z,100.00
2023-01-29T19:45:05.633Z,100.00
2023-01-29T19:47:32.891Z,100.00
2023-01-29T19:49:59.641Z,100.00
2023-01-29T19:52:50.189Z,100.00
2023-01-29T19:55:19.068Z,100.00
2023-01-29T19:57:46.014Z,100.00
2023-01-29T20:00:17.711Z,100.00
2023-01-29T20:02:44.509Z,100.00
2023-01-29T20:05:13.016Z,100.00
2023-01-29T20:07:42.614Z,100.00
2023-01-29T20:10:15.264Z,100.00
2023-01-29T20:12:44.776Z,100.00
2023-01-29T20:15:12.558Z,100.00
2023-01-29T20:17:39.349Z,100.00
2023-01-29T20:20:06.986Z,100.00
2023-01-29T20:22:33.700Z,100.00
2023-01-29T20:25:00.396Z,100.00
2023-01-29T20:27:27.069Z,100.00
2023-01-29T20:29:53.732Z,100.00
2023-01-29T20:32:20.423Z,100.00
2023-01-29T20:34:51.894Z,100.00
2023-01-29T20:37:19.417Z,100.00
2023-01-29T20:39:46.405Z,100.00
2023-01-29T20:42:13.747Z,100.00
2023-01-29T20:44:40.515Z,100.00
2023-01-29T20:47:07.344Z,100.00
2023-01-29T20:49:34.033Z,100.00
2023-01-29T20:52:01.798Z,100.00
2023-01-29T20:54:30.194Z,100.00
2023-01-29T20:56:57.070Z,100.00
2023-01-29T20:59:23.808Z,100.00
2023-01-29T21:01:50.673Z,100.00
2023-01-29T21:04:18.574Z,100.00
2023-01-29T21:06:45.218Z,100.00
2023-01-29T21:09:12.111Z,100.00
2023-01-29T21:11:38.830Z,100.00
2023-01-29T21:14:05.538Z,100.00
2023-01-29T21:16:32.377Z,100.00
2023-01-29T21:18:59.574Z,100.00
2023-01-29T21:21:27.148Z,100.00
2023-01-29T21:23:54.327Z,100.00
2023-01-29T21:26:23.308Z,100.00
2023-01-29T21:28:50.404Z,100.00
2023-01-29T21:31:17.898Z,100.00
2023-01-29T21:33:44.776Z,100.00
2023-01-29T21:36:12.296Z,100.00
2023-01-29T21:38:39.882Z,100.00
2023-01-29T21:41:09.840Z,100.00
2023-01-29T21:43:37.153Z,100.00
2023-01-29T21:46:12.179Z,100.00
2023-01-29T21:48:40.309Z,100.00
2023-01-29T21:51:07.557Z,100.00
2023-01-29T21:53:34.798Z,100.00
2023-01-29T21:56:03.720Z,100.00
2023-01-29T21:58:32.529Z,100.00
2023-01-29T22:01:18.560Z,100.00
2023-01-29T22:03:47.353Z,100.00
2023-01-29T22:06:14.981Z,100.00
2023-01-29T22:08:41.593Z,100.00
2023-01-29T22:11:09.012Z,100.00
2023-01-29T22:13:35.752Z,100.00
2023-01-29T22:16:02.389Z,100.00
2023-01-29T22:18:30.181Z,100.00
2023-01-29T22:20:57.582Z,100.00
2023-01-29T22:23:24.703Z,100.00
2023-01-29T22:25:51.451Z,100.00
2023-01-29T22:28:18.838Z,100.00
2023-01-29T22:30:45.620Z,100.00
2023-01-29T22:33:12.644Z,100.00
2023-01-29T22:35:39.314Z,100.00
2023-01-29T22:38:06.583Z,100.00
2023-01-29T22:40:33.393Z,100.00
2023-01-29T22:43:00.114Z,100.00
2023-01-29T22:45:28.973Z,100.00
2023-01-29T22:47:56.566Z,100.00
2023-01-29T22:50:23.201Z,100.00
2023-01-29T22:52:54.091Z,100.00
2023-01-29T22:55:21.596Z,100.00
2023-01-29T22:57:49.780Z,100.00
2023-01-29T23:00:17.212Z,100.00
2023-01-29T23:02:46.142Z,100.00
2023-01-29T23:05:12.909Z,100.00
2023-01-29T23:07:39.650Z,100.00
2023-01-29T23:10:07.332Z,100.00
2023-01-29T23:12:34.380Z,100.00
2023-01-29T23:15:01.086Z,100.00
2023-01-29T23:17:29.773Z,100.00
2023-01-29T23:19:56.445Z,100.00
2023-01-29T23:22:23.532Z,100.00
2023-01-29T23:24:50.264Z,100.00
2023-01-29T23:27:16.947Z,100.00
2023-01-29T23:29:48.136Z,100.00
2023-01-29T23:32:18.409Z,100.00
2023-01-29T23:34:46.412Z,100.00
2023-01-29T23:37:13.703Z,100.00
2023-01-29T23:39:40.321Z,100.00
2023-01-29T23:42:07.042Z,100.00
2023-01-29T23:44:35.584Z,100.00
2023-01-29T23:47:02.237Z,100.00
2023-01-29T23:49:29.478Z,100.00
2023-01-29T23:51:56.172Z,100.00
2023-01-29T23:54:23.371Z,100.00
2023-01-29T23:56:52.653Z,100.00
2023-01-29T23:59:19.529Z,100.00
